Time;durP1;ratioP1;P1;durP2;ratioP2;P2;SDS_P1;SDS_P2;PMS_P1;PMS_P2;Temp;Humidity;BMP_temperature;BMP_pressure;BME280_temperature;BME280_humidity;BME280_pressure;Samples;Min_cycle;Max_cycle;Signal;HPM_P1;HPM_P2
2023/10/21 00:00:11;;;;;;;15.27;4.53;;;24.30;99.90;;;;;;6245523;23;20039;-80
2023/10/21 00:02:41;;;;;;;19.00;5.05;;;24.40;99.90;;;;;;6250075;23;20036;-80
2023/10/21 00:05:09;;;;;;;18.50;5.10;;;24.30;99.90;;;;;;6260011;23;20028;-81
2023/10/21 00:07:38;;;;;;;17.85;4.90;;;24.20;99.90;;;;;;6261337;23;20023;-80
2023/10/21 00:10:08;;;;;;;17.23;4.07;;;24.20;99.90;;;;;;6253098;23;20070;-80
2023/10/21 00:12:36;;;;;;;23.77;6.05;;;24.10;99.90;;;;;;6243502;23;20042;-81
2023/10/21 00:15:04;;;;;;;21.45;5.78;;;24.10;99.90;;;;;;6246031;22;20024;-81
2023/10/21 00:17:31;;;;;;;22.08;5.50;;;24.10;99.90;;;;;;6226478;22;20029;-76
2023/10/21 00:19:59;;;;;;;24.02;6.00;;;24.00;99.90;;;;;;6197506;23;20017;-76
2023/10/21 00:22:28;;;;;;;19.38;4.88;;;23.90;99.90;;;;;;6218532;23;20017;-75
2023/10/21 00:24:55;;;;;;;19.33;5.63;;;23.80;99.90;;;;;;6217547;23;20021;-76
2023/10/21 00:27:24;;;;;;;19.80;4.72;;;23.80;99.90;;;;;;6239112;23;20430;-77
2023/10/21 00:29:51;;;;;;;20.73;5.03;;;23.70;99.90;;;;;;6250284;23;20064;-76
2023/10/21 00:32:18;;;;;;;18.27;4.32;;;23.80;99.90;;;;;;6271716;22;20024;-77
2023/10/21 00:34:46;;;;;;;21.60;5.45;;;23.90;99.90;;;;;;6274642;22;20012;-75
2023/10/21 00:37:15;;;;;;;16.60;5.13;;;24.00;99.90;;;;;;6262252;23;20070;-74
2023/10/21 00:39:43;;;;;;;17.67;5.55;;;24.00;99.90;;;;;;6242637;22;20024;-75
2023/10/21 00:42:11;;;;;;;17.23;5.50;;;23.90;99.90;;;;;;6245736;22;20020;-76
2023/10/21 00:44:41;;;;;;;22.83;6.97;;;23.80;99.90;;;;;;6240522;23;20046;-75
2023/10/21 00:47:09;;;;;;;24.92;8.88;;;23.80;99.90;;;;;;6240567;23;20024;-76
2023/10/21 00:49:37;;;;;;;24.25;5.93;;;23.70;99.90;;;;;;6240594;22;20012;-75
2023/10/21 00:52:06;;;;;;;24.17;8.52;;;23.70;99.90;;;;;;6242264;23;20016;-78
2023/10/21 00:54:34;;;;;;;24.85;7.00;;;23.70;99.90;;;;;;6240665;23;20028;-77
2023/10/21 00:57:02;;;;;;;17.50;5.40;;;23.60;99.90;;;;;;6240412;23;20028;-77
2023/10/21 00:59:29;;;;;;;23.52;5.88;;;23.60;99.90;;;;;;6240334;22;20032;-76
2023/10/21 01:01:58;;;;;;;21.80;5.32;;;23.60;99.90;;;;;;6250213;22;20356;-76
2023/10/21 01:04:26;;;;;;;23.25;5.95;;;23.50;99.90;;;;;;6253147;23;20012;-76
2023/10/21 01:06:56;;;;;;;20.98;5.63;;;23.30;99.90;;;;;;6242146;23;20047;-76
2023/10/21 01:09:23;;;;;;;22.30;5.72;;;23.30;99.90;;;;;;6239321;22;20035;-77
2023/10/21 01:11:50;;;;;;;18.15;4.97;;;23.30;99.90;;;;;;6240414;23;20081;-77
2023/10/21 01:14:18;;;;;;;18.55;5.35;;;23.30;99.90;;;;;;6249501;22;20082;-77
2023/10/21 01:16:45;;;;;;;23.88;5.70;;;23.30;99.90;;;;;;6253096;22;20058;-76
2023/10/21 01:19:15;;;;;;;23.75;5.70;;;23.10;99.90;;;;;;6283443;22;20011;-76
2023/10/21 01:21:42;;;;;;;16.58;5.13;;;23.00;99.90;;;;;;6273805;22;20082;-76
2023/10/21 01:24:11;;;;;;;22.65;5.43;;;23.10;99.90;;;;;;6274941;22;20029;-75
2023/10/21 01:26:38;;;;;;;19.27;4.82;;;23.20;99.90;;;;;;6277800;22;20023;-75
2023/10/21 01:29:09;;;;;;;19.08;5.22;;;23.30;99.90;;;;;;6245239;22;20053;-77
2023/10/21 01:31:36;;;;;;;24.55;5.45;;;23.30;99.90;;;;;;6282776;22;20018;-76
2023/10/21 01:34:04;;;;;;;23.40;4.97;;;23.30;99.90;;;;;;6247815;22;20444;-77
2023/10/21 01:36:32;;;;;;;20.02;5.15;;;23.20;99.90;;;;;;6275882;22;20023;-75
2023/10/21 01:39:00;;;;;;;20.45;5.82;;;23.40;99.90;;;;;;6249430;22;20024;-78
2023/10/21 01:41:29;;;;;;;15.98;4.75;;;23.50;99.90;;;;;;6268604;22;20011;-76
2023/10/21 01:43:56;;;;;;;22.42;5.60;;;23.60;99.90;;;;;;6252339;22;20023;-76
2023/10/21 01:46:23;;;;;;;23.42;5.45;;;23.60;99.90;;;;;;6246823;22;20026;-77
2023/10/21 01:48:52;;;;;;;20.92;5.20;;;23.70;99.90;;;;;;6272900;22;20019;-77
2023/10/21 01:51:19;;;;;;;20.27;5.20;;;23.70;99.90;;;;;;6245684;22;20024;-76
2023/10/21 01:53:47;;;;;;;24.23;5.57;;;23.70;99.90;;;;;;6277474;22;20024;-76
2023/10/21 01:56:14;;;;;;;20.30;4.78;;;23.70;99.90;;;;;;6278206;22;20016;-75
2023/10/21 01:58:43;;;;;;;19.33;4.85;;;23.70;99.90;;;;;;6281656;22;20012;-77
2023/10/21 02:01:11;;;;;;;19.30;5.30;;;23.60;99.90;;;;;;6246034;22;20024;-78
2023/10/21 02:03:38;;;;;;;21.40;6.07;;;23.60;99.90;;;;;;6252768;22;20039;-76
2023/10/21 02:06:07;;;;;;;22.95;6.40;;;23.60;99.90;;;;;;6277431;22;20024;-75
2023/10/21 02:08:34;;;;;;;23.27;5.97;;;23.60;99.90;;;;;;6244199;22;20024;-76
2023/10/21 02:11:02;;;;;;;20.02;5.35;;;23.60;99.90;;;;;;6246218;22;20020;-76
2023/10/21 02:13:29;;;;;;;22.17;5.40;;;23.60;99.90;;;;;;6246257;22;20020;-76
2023/10/21 02:15:59;;;;;;;19.55;5.20;;;23.70;99.90;;;;;;6266187;22;20015;-76
2023/10/21 02:18:26;;;;;;;20.25;4.68;;;23.70;99.90;;;;;;6273958;22;20055;-77
2023/10/21 02:20:53;;;;;;;20.73;4.78;;;23.80;99.90;;;;;;6263109;22;20046;-77
2023/10/21 02:23:21;;;;;;;16.77;5.30;;;23.80;99.90;;;;;;6249228;22;20020;-75
2023/10/21 02:25:59;;;;;;;18.58;4.80;;;24.00;99.90;;;;;;6284718;22;20023;-75
2023/10/21 02:28:26;;;;;;;23.73;6.20;;;24.10;99.90;;;;;;6248976;22;20031;-76
2023/10/21 02:30:53;;;;;;;22.40;4.80;;;24.10;99.90;;;;;;6251394;22;20024;-78
2023/10/21 02:33:22;;;;;;;22.50;4.97;;;24.00;99.90;;;;;;6259020;22;20019;-80
2023/10/21 02:35:53;;;;;;;20.25;4.90;;;23.90;99.90;;;;;;6290106;22;20082;-76
2023/10/21 02:38:20;;;;;;;13.68;4.65;;;24.00;99.90;;;;;;6293242;22;20444;-79
2023/10/21 02:40:48;;;;;;;19.17;5.57;;;24.10;99.90;;;;;;6298661;22;20071;-78
2023/10/21 02:43:15;;;;;;;21.88;4.93;;;24.20;99.90;;;;;;6297102;22;20118;-76
2023/10/21 02:45:43;;;;;;;18.20;5.30;;;24.20;99.90;;;;;;6247237;22;20020;-76
2023/10/21 02:48:10;;;;;;;23.52;5.85;;;24.20;99.90;;;;;;6246550;22;20024;-76
2023/10/21 02:50:41;;;;;;;19.13;4.75;;;24.10;99.90;;;;;;6246365;22;20023;-77
2023/10/21 02:53:09;;;;;;;20.15;4.85;;;24.00;99.90;;;;;;6281361;22;20039;-75
2023/10/21 02:55:37;;;;;;;22.08;4.70;;;24.00;99.90;;;;;;6286286;22;20019;-77
2023/10/21 02:58:05;;;;;;;18.20;4.97;;;23.90;99.90;;;;;;6249262;22;20022;-76
2023/10/21 03:00:32;;;;;;;18.58;4.53;;;23.80;99.90;;;;;;6254195;22;20023;-76
2023/10/21 03:03:00;;;;;;;19.50;5.22;;;23.80;99.90;;;;;;6286738;22;20020;-76
2023/10/21 03:05:27;;;;;;;21.88;5.28;;;23.60;99.90;;;;;;6262980;22;20024;-75
2023/10/21 03:07:56;;;;;;;21.23;5.00;;;23.60;99.90;;;;;;6292421;22;20020;-75
2023/10/21 03:10:24;;;;;;;23.48;4.80;;;23.50;99.90;;;;;;6246884;22;20483;-76
2023/10/21 03:12:52;;;;;;;24.00;5.28;;;23.40;99.90;;;;;;6246073;22;20024;-75
2023/10/21 03:15:19;;;;;;;16.92;5.03;;;23.30;99.90;;;;;;6276058;22;20049;-74
2023/10/21 03:17:46;;;;;;;16.45;4.75;;;23.30;99.90;;;;;;6246946;22;20028;-77
2023/10/21 03:20:14;;;;;;;20.80;5.50;;;23.20;99.90;;;;;;6280402;22;20020;-75
2023/10/21 03:22:43;;;;;;;18.15;5.20;;;23.10;99.90;;;;;;6246370;22;20016;-75
2023/10/21 03:25:12;;;;;;;22.20;5.38;;;23.00;99.90;;;;;;6308465;22;20020;-76
2023/10/21 03:27:39;;;;;;;23.05;5.10;;;23.00;99.90;;;;;;6303374;22;20020;-76
2023/10/21 03:30:08;;;;;;;18.98;4.57;;;22.90;99.90;;;;;;6305176;22;20007;-76
2023/10/21 03:32:36;;;;;;;18.63;5.10;;;22.90;99.90;;;;;;6306678;22;20020;-77
2023/10/21 03:35:04;;;;;;;18.67;5.53;;;22.90;99.90;;;;;;6274922;22;20007;-75
2023/10/21 03:37:32;;;;;;;14.57;4.47;;;22.70;99.90;;;;;;6269470;22;20023;-76
2023/10/21 03:40:00;;;;;;;18.55;5.05;;;22.70;99.90;;;;;;6284737;22;20344;-77
2023/10/21 03:42:28;;;;;;;23.15;5.40;;;22.50;99.90;;;;;;6275910;22;20023;-75
2023/10/21 03:44:56;;;;;;;21.67;6.05;;;22.40;99.90;;;;;;6277153;22;20023;-76
2023/10/21 03:47:23;;;;;;;20.75;5.40;;;22.30;99.90;;;;;;6279912;22;20094;-75
2023/10/21 03:49:50;;;;;;;19.77;4.35;;;22.30;99.90;;;;;;6246531;22;20089;-75
2023/10/21 03:52:18;;;;;;;21.10;5.45;;;22.30;99.90;;;;;;6247895;22;20436;-75
2023/10/21 03:54:47;;;;;;;15.80;4.78;;;22.30;99.90;;;;;;6274682;22;20399;-75
2023/10/21 03:57:14;;;;;;;19.48;5.30;;;22.20;99.90;;;;;;6291697;22;20043;-75
2023/10/21 03:59:43;;;;;;;18.83;5.50;;;22.10;99.90;;;;;;6296596;22;20024;-76
2023/10/21 04:02:13;;;;;;;17.65;5.57;;;22.00;99.90;;;;;;6283853;22;20035;-75
2023/10/21 04:04:40;;;;;;;20.83;5.10;;;21.90;99.90;;;;;;6253467;22;20344;-75
2023/10/21 04:07:08;;;;;;;18.65;5.38;;;21.80;99.90;;;;;;6249202;22;20019;-75
2023/10/21 04:09:35;;;;;;;20.50;6.50;;;21.60;99.90;;;;;;6246883;22;20072;-77
2023/10/21 04:12:02;;;;;;;20.13;7.18;;;21.50;99.90;;;;;;6248103;22;20054;-76
2023/10/21 04:14:30;;;;;;;19.60;6.43;;;21.40;99.90;;;;;;6284590;22;20039;-74
2023/10/21 04:16:59;;;;;;;15.15;5.70;;;21.20;99.90;;;;;;6256353;22;20059;-75
2023/10/21 04:19:26;;;;;;;21.45;6.53;;;21.10;99.90;;;;;;6289245;22;20030;-75
2023/10/21 04:22:01;;;;;;;17.67;6.50;;;21.10;99.90;;;;;;6249486;22;20028;-75
2023/10/21 04:24:32;;;;;;;20.98;6.78;;;21.10;99.90;;;;;;6239420;22;20024;-76
2023/10/21 04:27:00;;;;;;;22.90;7.18;;;21.10;99.90;;;;;;6295387;22;20027;-77
2023/10/21 04:29:27;;;;;;;21.63;6.47;;;21.20;99.90;;;;;;6287895;22;20024;-77
2023/10/21 04:31:55;;;;;;;25.15;6.72;;;21.20;99.90;;;;;;6264524;22;20051;-77
2023/10/21 04:34:23;;;;;;;22.80;7.40;;;21.20;99.90;;;;;;6275536;22;20022;-77
2023/10/21 04:36:51;;;;;;;25.20;8.10;;;21.30;99.90;;;;;;6297429;22;20019;-75
2023/10/21 04:39:18;;;;;;;26.13;8.02;;;21.20;99.90;;;;;;6276944;22;20033;-76
2023/10/21 04:41:49;;;;;;;22.48;6.70;;;21.20;99.90;;;;;;6279590;22;20085;-74
2023/10/21 04:44:16;;;;;;;19.92;6.72;;;21.30;99.90;;;;;;6255503;22;20034;-74
2023/10/21 04:46:44;;;;;;;23.63;6.78;;;21.40;99.90;;;;;;6291779;22;20011;-75
2023/10/21 04:49:11;;;;;;;26.10;7.75;;;21.60;99.90;;;;;;6295335;22;20018;-74
2023/10/21 04:51:40;;;;;;;20.73;6.82;;;21.60;99.90;;;;;;6275350;22;20313;-74
2023/10/21 04:54:09;;;;;;;21.60;8.30;;;21.70;99.90;;;;;;6281125;22;20038;-76
2023/10/21 04:56:36;;;;;;;23.80;7.40;;;21.70;99.90;;;;;;6289641;22;20518;-76
2023/10/21 04:59:03;;;;;;;21.30;7.15;;;21.70;99.90;;;;;;6286238;22;20089;-75
2023/10/21 05:01:31;;;;;;;20.50;6.07;;;21.60;99.90;;;;;;6249646;22;20031;-75
2023/10/21 05:03:59;;;;;;;24.05;6.00;;;21.60;99.90;;;;;;6287571;22;20018;-76
2023/10/21 05:06:26;;;;;;;20.33;5.93;;;21.60;99.90;;;;;;6276789;22;20039;-75
2023/10/21 05:08:55;;;;;;;15.25;5.30;;;21.50;99.90;;;;;;6278466;22;20069;-77
2023/10/21 05:11:23;;;;;;;20.63;6.20;;;21.50;99.90;;;;;;6281385;22;20050;-73
2023/10/21 05:13:50;;;;;;;21.30;6.18;;;21.40;99.90;;;;;;6282122;22;20441;-76
2023/10/21 05:16:18;;;;;;;17.48;6.30;;;21.40;99.90;;;;;;6249080;22;20024;-76
2023/10/21 05:18:45;;;;;;;24.30;6.18;;;21.40;99.90;;;;;;6277938;22;20058;-74
2023/10/21 05:21:13;;;;;;;19.13;5.90;;;21.30;99.90;;;;;;6248499;22;20030;-76
2023/10/21 05:23:40;;;;;;;20.75;6.70;;;21.30;99.90;;;;;;6278952;22;20360;-77
2023/10/21 05:26:09;;;;;;;21.60;6.60;;;21.30;99.90;;;;;;6282960;22;20043;-76
2023/10/21 05:28:37;;;;;;;23.08;6.70;;;21.20;99.90;;;;;;6283626;22;20036;-75
2023/10/21 05:31:04;;;;;;;23.25;6.80;;;21.20;99.90;;;;;;6286244;22;20436;-78
2023/10/21 05:33:32;;;;;;;30.13;7.55;;;21.10;99.90;;;;;;6277919;22;20364;-73
2023/10/21 05:35:59;;;;;;;29.42;7.25;;;21.10;99.90;;;;;;6281271;22;20032;-76
2023/10/21 05:38:27;;;;;;;22.17;7.00;;;21.00;99.90;;;;;;6283448;22;20518;-77
2023/10/21 05:40:54;;;;;;;24.20;6.57;;;21.10;99.90;;;;;;6287057;22;20094;-74
2023/10/21 05:43:23;;;;;;;22.10;6.78;;;21.10;99.90;;;;;;6292405;22;20019;-76
2023/10/21 05:45:50;;;;;;;23.90;6.88;;;21.00;99.90;;;;;;6247154;22;20024;-78
2023/10/21 05:48:18;;;;;;;24.73;8.00;;;21.00;99.90;;;;;;6275705;22;20030;-77
2023/10/21 05:50:45;;;;;;;21.65;7.43;;;20.90;99.90;;;;;;6284426;22;20122;-79
2023/10/21 05:53:12;;;;;;;26.40;7.63;;;20.80;99.90;;;;;;6307613;22;20003;-76
2023/10/21 05:55:43;;;;;;;23.95;8.90;;;20.70;99.90;;;;;;6273044;22;20085;-77
2023/10/21 05:58:10;;;;;;;26.42;11.95;;;20.60;99.90;;;;;;6297310;22;20020;-75
2023/10/21 06:00:42;;;;;;;32.47;14.30;;;20.60;99.90;;;;;;6287795;22;20022;-75
2023/10/21 06:03:40;;;;;;;37.65;18.63;;;20.70;99.90;;;;;;6284939;22;20057;-77
2023/10/21 06:06:11;;;;;;;83.20;41.05;;;20.70;99.90;;;;;;6289222;22;20039;-77
2023/10/21 06:08:39;;;;;;;214.10;110.20;;;20.80;99.90;;;;;;6294357;22;20295;-77
2023/10/21 06:11:08;;;;;;;192.82;97.70;;;20.60;99.90;;;;;;6296396;22;20118;-77
2023/10/21 06:13:35;;;;;;;85.80;37.83;;;20.50;99.90;;;;;;6292606;22;20073;-75
2023/10/21 06:16:05;;;;;;;111.57;44.30;;;20.50;99.90;;;;;;6292141;22;20053;-75
2023/10/21 06:18:32;;;;;;;49.85;22.40;;;20.40;99.90;;;;;;6247735;22;20027;-79
2023/10/21 06:21:00;;;;;;;62.08;26.23;;;20.30;99.90;;;;;;6215030;23;20021;-79
2023/10/21 06:23:27;;;;;;;40.75;19.75;;;20.50;99.90;;;;;;6247672;23;20020;-77
2023/10/21 06:25:56;;;;;;;47.60;15.38;;;20.70;99.90;;;;;;6250703;22;20035;-79
2023/10/21 06:28:23;;;;;;;84.95;38.17;;;20.90;99.90;;;;;;6215457;23;20434;-77
2023/10/21 06:30:51;;;;;;;71.90;29.77;;;21.20;99.90;;;;;;6242210;23;20031;-79
2023/10/21 06:33:20;;;;;;;74.25;32.58;;;21.30;99.90;;;;;;6243777;23;20020;-78
2023/10/21 06:35:48;;;;;;;77.38;36.33;;;21.40;99.90;;;;;;6246246;22;20028;-79
2023/10/21 06:38:16;;;;;;;42.67;15.30;;;21.60;99.90;;;;;;6247985;23;20028;-77
2023/10/21 06:40:45;;;;;;;57.95;16.98;;;21.70;99.90;;;;;;6242419;23;20083;-77
2023/10/21 06:43:12;;;;;;;42.88;11.80;;;22.00;99.90;;;;;;6252567;23;20013;-77
2023/10/21 06:45:39;;;;;;;45.25;14.20;;;22.20;99.90;;;;;;6214522;23;20070;-78
2023/10/21 06:48:08;;;;;;;38.65;14.10;;;22.30;99.90;;;;;;6244126;23;20119;-76
2023/10/21 06:50:37;;;;;;;44.10;13.90;;;22.40;99.90;;;;;;6248826;23;20103;-76
2023/10/21 06:53:05;;;;;;;45.17;13.77;;;22.30;99.90;;;;;;6252668;23;20326;-77
2023/10/21 06:55:42;;;;;;;40.83;12.18;;;22.20;99.90;;;;;;6255464;23;20091;-78
2023/10/21 06:58:09;;;;;;;36.97;11.13;;;22.20;99.90;;;;;;6260365;23;20017;-77
2023/10/21 07:00:37;;;;;;;62.40;14.98;;;22.30;99.90;;;;;;6257850;23;20036;-79
2023/10/21 07:03:05;;;;;;;37.22;13.85;;;22.40;99.90;;;;;;6257060;23;20035;-78
2023/10/21 07:05:33;;;;;;;40.22;12.63;;;22.60;99.90;;;;;;6250375;23;20034;-79
2023/10/21 07:08:02;;;;;;;30.08;10.23;;;22.80;99.90;;;;;;6251916;23;20012;-79
2023/10/21 07:10:30;;;;;;;39.80;14.32;;;22.80;99.90;;;;;;6253198;23;20332;-78
2023/10/21 07:12:58;;;;;;;54.80;20.77;;;22.70;99.90;;;;;;6254596;23;20078;-77
2023/10/21 07:15:27;;;;;;;54.72;23.63;;;22.70;99.90;;;;;;6245873;23;20090;-78
2023/10/21 07:17:55;;;;;;;52.97;22.27;;;22.80;99.90;;;;;;6247187;23;20043;-77
2023/10/21 07:20:22;;;;;;;47.17;18.08;;;22.80;99.90;;;;;;6248087;23;20027;-77
2023/10/21 07:22:50;;;;;;;49.25;18.42;;;22.80;99.90;;;;;;6251168;23;20356;-77
2023/10/21 07:25:19;;;;;;;183.73;52.03;;;22.80;99.90;;;;;;6253413;23;20020;-78
2023/10/21 07:27:46;;;;;;;54.33;19.40;;;22.80;99.90;;;;;;6242437;22;20135;-77
2023/10/21 07:30:15;;;;;;;54.25;20.65;;;22.90;99.90;;;;;;6245131;23;20031;-77
2023/10/21 07:32:42;;;;;;;60.75;22.45;;;23.00;99.90;;;;;;6248075;23;20020;-78
2023/10/21 07:35:10;;;;;;;65.30;22.25;;;23.20;99.90;;;;;;6249929;22;20020;-77
2023/10/21 07:37:38;;;;;;;47.33;16.35;;;23.30;99.90;;;;;;6252549;23;20016;-77
2023/10/21 07:40:07;;;;;;;40.25;10.63;;;23.40;99.90;;;;;;6253439;23;20012;-79
2023/10/21 07:42:35;;;;;;;36.90;9.82;;;23.60;99.90;;;;;;6243121;23;20024;-77
2023/10/21 07:45:11;;;;;;;35.03;9.80;;;23.70;99.90;;;;;;6246045;23;20031;-77
2023/10/21 07:47:39;;;;;;;30.83;8.20;;;23.80;99.90;;;;;;6248194;23;20106;-78
2023/10/21 07:50:07;;;;;;;35.38;9.85;;;23.80;99.90;;;;;;6249437;23;20082;-80
2023/10/21 07:52:36;;;;;;;34.28;8.70;;;23.70;99.90;;;;;;6256704;23;20012;-78
2023/10/21 07:55:05;;;;;;;37.13;13.15;;;23.70;99.90;;;;;;6254512;22;20008;-78
2023/10/21 07:57:33;;;;;;;31.33;11.95;;;23.80;99.90;;;;;;6245689;23;20027;-79
2023/10/21 08:00:03;;;;;;;32.72;9.43;;;23.80;99.90;;;;;;6246051;23;20028;-79
2023/10/21 08:02:31;;;;;;;24.88;7.28;;;23.80;99.90;;;;;;6242178;23;20117;-78
2023/10/21 08:04:59;;;;;;;23.85;8.05;;;23.90;99.90;;;;;;6251760;23;20028;-78
2023/10/21 08:07:37;;;;;;;28.65;6.13;;;23.90;99.90;;;;;;6255453;23;20016;-81
2023/10/21 08:10:05;;;;;;;21.77;6.25;;;24.00;99.90;;;;;;6217987;23;20020;-78
2023/10/21 08:12:37;;;;;;;29.05;7.45;;;24.30;99.90;;;;;;6236037;23;20044;-80
2023/10/21 08:15:07;;;;;;;25.20;8.90;;;24.70;99.90;;;;;;6250775;22;20020;-81
2023/10/21 08:17:47;;;;;;;19.88;6.45;;;25.10;99.90;;;;;;6230654;23;20024;-81
2023/10/21 08:20:19;;;;;;;30.60;9.13;;;25.50;99.90;;;;;;6230579;23;20024;-76
2023/10/21 08:22:47;;;;;;;20.50;6.20;;;25.70;99.90;;;;;;6235067;23;20016;-80
2023/10/21 08:25:15;;;;;;;44.13;19.95;;;25.70;99.90;;;;;;6248015;22;20016;-86
2023/10/21 08:27:43;;;;;;;24.17;6.13;;;25.60;99.90;;;;;;6260957;23;20008;-79
2023/10/21 08:30:13;;;;;;;24.58;7.13;;;25.50;99.90;;;;;;6234364;23;20028;-79
2023/10/21 08:32:40;;;;;;;25.50;6.30;;;25.50;99.90;;;;;;6264071;23;20080;-80
2023/10/21 08:35:08;;;;;;;19.90;5.75;;;25.40;99.90;;;;;;6220633;22;20022;-84
2023/10/21 08:37:37;;;;;;;26.23;6.30;;;25.30;99.90;;;;;;6255506;23;20212;-84
2023/10/21 08:40:10;;;;;;;30.23;7.10;;;25.20;99.90;;;;;;6255363;23;20079;-84
2023/10/21 08:42:38;;;;;;;27.75;6.05;;;25.10;99.90;;;;;;6244023;23;20016;-80
2023/10/21 08:45:09;;;;;;;23.70;5.63;;;25.00;99.90;;;;;;6243953;22;20027;-80
2023/10/21 08:47:42;;;;;;;25.08;6.15;;;24.90;99.90;;;;;;6250570;23;20209;-80
2023/10/21 08:50:12;;;;;;;22.55;5.20;;;24.90;99.90;;;;;;6252117;23;20024;-80
2023/10/21 08:52:41;;;;;;;20.08;5.88;;;24.90;99.90;;;;;;6218037;23;20452;-78
2023/10/21 08:55:10;;;;;;;26.08;6.75;;;24.90;99.90;;;;;;6218102;23;20197;-78
2023/10/21 08:57:37;;;;;;;16.52;4.82;;;24.90;99.90;;;;;;6252070;23;20024;-81
2023/10/21 09:00:06;;;;;;;20.90;5.80;;;24.90;99.90;;;;;;6253874;23;20468;-82
2023/10/21 09:02:34;;;;;;;23.15;5.95;;;24.90;99.90;;;;;;6255540;23;20070;-81
2023/10/21 09:05:10;;;;;;;21.27;4.75;;;25.10;99.90;;;;;;6260063;22;20028;-81
2023/10/21 09:07:47;;;;;;;13.25;4.70;;;25.10;99.90;;;;;;6263951;23;20080;-81
2023/10/21 09:10:16;;;;;;;16.20;4.90;;;25.10;99.90;;;;;;6265372;23;20027;-80
2023/10/21 09:12:43;;;;;;;14.73;4.65;;;25.00;99.90;;;;;;6255357;23;20020;-79
2023/10/21 09:15:12;;;;;;;15.23;4.72;;;24.80;99.90;;;;;;6250416;22;20047;-82
2023/10/21 09:17:41;;;;;;;16.52;5.07;;;24.70;99.90;;;;;;6258870;23;20103;-83
2023/10/21 09:20:11;;;;;;;18.08;4.60;;;24.60;99.90;;;;;;6266903;23;20043;-82
2023/10/21 09:22:40;;;;;;;19.90;5.18;;;24.50;99.90;;;;;;6267402;23;20012;-80
2023/10/21 09:25:14;;;;;;;19.27;5.75;;;24.30;99.90;;;;;;6258100;22;20452;-80
2023/10/21 09:27:42;;;;;;;17.00;4.57;;;24.20;99.90;;;;;;6254109;23;20024;-81
2023/10/21 09:30:18;;;;;;;16.08;4.35;;;24.00;99.90;;;;;;6222215;23;20020;-80
2023/10/21 09:32:46;;;;;;;14.02;4.65;;;23.90;99.90;;;;;;6265570;23;20051;-80
2023/10/21 09:35:17;;;;;;;16.75;5.50;;;23.70;99.90;;;;;;6267763;22;20039;-81
2023/10/21 09:37:44;;;;;;;18.65;4.47;;;23.70;99.90;;;;;;6271427;23;20004;-79
2023/10/21 09:40:12;;;;;;;16.60;7.05;;;23.80;99.90;;;;;;6267620;23;20012;-82
2023/10/21 09:42:41;;;;;;;21.02;7.35;;;23.80;99.90;;;;;;6248501;23;20096;-81
2023/10/21 09:45:10;;;;;;;13.70;4.00;;;23.90;99.90;;;;;;6252267;22;20099;-80
2023/10/21 09:47:40;;;;;;;14.18;4.63;;;24.10;99.90;;;;;;6256401;23;20032;-81
2023/10/21 09:50:11;;;;;;;15.05;4.53;;;24.30;99.90;;;;;;6248363;23;20457;-81
2023/10/21 09:52:51;;;;;;;11.88;3.72;;;24.40;99.90;;;;;;6257382;23;20032;-79
2023/10/21 09:55:25;;;;;;;9.88;3.58;;;24.30;99.90;;;;;;6218828;23;20054;-81
2023/10/21 09:57:55;;;;;;;24.70;5.13;;;24.50;99.90;;;;;;6244257;23;20024;-80
2023/10/21 10:00:24;;;;;;;16.83;4.80;;;24.70;99.90;;;;;;6246326;23;20024;-81
2023/10/21 10:02:54;;;;;;;17.90;4.32;;;24.80;99.90;;;;;;6248661;23;20020;-80
2023/10/21 10:05:22;;;;;;;17.63;5.53;;;24.70;99.90;;;;;;6250352;22;20028;-80
2023/10/21 10:07:52;;;;;;;11.35;3.72;;;24.60;99.90;;;;;;6216548;23;20393;-82
2023/10/21 10:10:23;;;;;;;13.05;4.43;;;24.50;99.90;;;;;;6218301;23;20016;-81
2023/10/21 10:12:55;;;;;;;15.45;4.38;;;24.50;99.90;;;;;;6243904;23;20107;-78
2023/10/21 10:15:33;;;;;;;11.30;4.00;;;24.30;99.90;;;;;;6244940;22;20025;-80
2023/10/21 10:18:04;;;;;;;13.35;4.82;;;24.30;99.90;;;;;;6246126;23;20024;-81
2023/10/21 10:20:32;;;;;;;11.38;4.65;;;24.50;99.90;;;;;;6247952;23;20074;-80
2023/10/21 10:23:04;;;;;;;16.63;6.18;;;24.70;99.90;;;;;;6217177;23;20043;-81
2023/10/21 10:25:33;;;;;;;15.13;4.85;;;24.90;99.90;;;;;;6241324;23;20388;-79
2023/10/21 10:28:04;;;;;;;16.50;5.05;;;25.00;99.90;;;;;;6255267;23;20024;-82
2023/10/21 10:30:33;;;;;;;17.80;6.13;;;25.00;99.90;;;;;;6216694;23;20374;-82
2023/10/21 10:33:07;;;;;;;21.85;4.78;;;24.90;99.90;;;;;;6248168;23;20290;-81
2023/10/21 10:35:37;;;;;;;15.65;5.13;;;24.70;99.90;;;;;;6248289;22;20577;-82
2023/10/21 10:38:20;;;;;;;16.27;5.03;;;24.50;99.90;;;;;;6218212;23;20055;-80
2023/10/21 10:40:47;;;;;;;15.63;5.30;;;24.30;99.90;;;;;;6226451;23;20036;-82
2023/10/21 10:43:17;;;;;;;17.13;5.07;;;24.10;99.90;;;;;;6231648;23;20016;-80
2023/10/21 10:45:46;;;;;;;16.17;4.88;;;24.00;99.90;;;;;;6263062;22;20063;-80
2023/10/21 10:48:15;;;;;;;15.43;4.93;;;23.90;99.90;;;;;;6265032;23;20024;-78
2023/10/21 10:50:42;;;;;;;15.70;4.88;;;23.80;99.90;;;;;;6269601;23;20070;-79
2023/10/21 10:53:20;;;;;;;21.58;6.32;;;23.90;99.90;;;;;;6270558;23;20030;-82
2023/10/21 10:55:53;;;;;;;15.45;4.75;;;23.90;99.90;;;;;;6252287;23;20066;-79
2023/10/21 10:59:25;;;;;;;15.63;5.50;;;24.00;99.90;;;;;;6254720;23;20012;-82
2023/10/21 11:01:58;;;;;;;20.20;5.93;;;24.30;99.90;;;;;;6211125;23;20043;-81
2023/10/21 11:04:50;;;;;;;16.55;6.07;;;24.90;99.90;;;;;;6225850;23;20079;-79
2023/10/21 11:07:17;;;;;;;17.52;6.07;;;25.10;99.90;;;;;;6215831;23;20055;-80
2023/10/21 11:09:46;;;;;;;16.25;6.35;;;25.10;99.90;;;;;;6215982;23;20032;-81
2023/10/21 11:12:15;;;;;;;18.90;8.52;;;25.10;99.90;;;;;;6216380;23;20042;-80
2023/10/21 11:14:43;;;;;;;34.92;18.80;;;25.00;99.90;;;;;;6238187;23;20080;-81
2023/10/21 11:17:11;;;;;;;19.00;5.78;;;24.90;99.90;;;;;;6274400;22;20369;-80
2023/10/21 11:19:38;;;;;;;18.65;5.75;;;24.90;99.90;;;;;;6252416;22;20063;-81
2023/10/21 11:22:08;;;;;;;16.63;5.68;;;25.00;99.90;;;;;;6253899;23;20016;-79
2023/10/21 11:24:36;;;;;;;18.92;6.05;;;25.00;99.90;;;;;;6244976;22;20333;-80
2023/10/21 11:27:06;;;;;;;24.10;6.15;;;25.00;99.90;;;;;;6248719;22;20043;-81
2023/10/21 11:29:34;;;;;;;17.85;5.00;;;25.00;99.90;;;;;;6267092;22;20031;-81
2023/10/21 11:32:02;;;;;;;21.25;5.57;;;25.00;99.90;;;;;;6241660;22;20024;-81
2023/10/21 11:34:30;;;;;;;17.40;5.85;;;24.90;99.90;;;;;;6251101;22;20015;-80
2023/10/21 11:36:58;;;;;;;22.70;5.45;;;24.90;99.90;;;;;;6252913;23;20443;-79
2023/10/21 11:39:25;;;;;;;21.17;6.00;;;25.00;99.90;;;;;;6245388;22;20055;-80
2023/10/21 11:41:53;;;;;;;20.63;5.38;;;25.20;99.90;;;;;;6246728;23;20024;-80
2023/10/21 11:44:29;;;;;;;20.75;5.35;;;25.40;99.90;;;;;;6251327;22;20086;-80
2023/10/21 11:47:03;;;;;;;19.10;7.63;;;25.50;99.90;;;;;;6251751;22;20020;-81
2023/10/21 11:49:34;;;;;;;26.73;7.63;;;25.60;99.90;;;;;;6252644;22;20098;-81
2023/10/21 11:52:02;;;;;;;18.55;5.60;;;25.70;99.90;;;;;;6254881;23;20016;-81
2023/10/21 11:54:38;;;;;;;23.98;6.55;;;25.70;99.90;;;;;;6244828;22;20095;-80
2023/10/21 12:11:44;;;;;;;22.50;6.72;;;26.20;99.90;;;;;;6235033;22;20350;-80
2023/10/21 12:17:03;;;;;;;30.02;5.53;;;26.30;99.90;;;;;;6263008;22;20020;-84
2023/10/21 12:33:52;;;;;;;22.58;6.22;;;26.40;99.90;;;;;;6212625;23;20020;-82
2023/10/21 12:41:53;;;;;;;20.27;5.88;;;26.50;99.90;;;;;;6187925;23;20020;-80
2023/10/21 12:44:23;;;;;;;26.92;7.40;;;26.40;99.90;;;;;;6220225;23;20034;-80
2023/10/21 12:46:57;;;;;;;22.55;6.40;;;26.40;99.90;;;;;;6187030;23;20073;-80
2023/10/21 12:49:28;;;;;;;18.80;5.93;;;26.40;99.90;;;;;;6223891;23;20075;-79
2023/10/21 12:51:56;;;;;;;20.45;6.88;;;26.40;99.90;;;;;;6217122;23;20022;-82
2023/10/21 12:54:24;;;;;;;25.60;6.13;;;26.50;99.90;;;;;;6217723;23;20020;-81
2023/10/21 12:56:51;;;;;;;17.38;5.38;;;26.50;99.90;;;;;;6248486;23;20032;-81
2023/10/21 12:59:20;;;;;;;17.52;5.25;;;26.60;99.90;;;;;;6250054;23;20107;-80
2023/10/21 13:01:48;;;;;;;22.45;6.10;;;26.50;99.90;;;;;;6216488;23;20020;-82
2023/10/21 13:04:15;;;;;;;24.75;5.63;;;26.50;99.90;;;;;;6254164;22;20024;-79
2023/10/21 13:06:47;;;;;;;21.67;6.40;;;26.50;99.90;;;;;;6244364;23;20106;-81
2023/10/21 13:09:23;;;;;;;16.70;5.68;;;26.50;99.90;;;;;;6248650;23;20024;-82
2023/10/21 13:11:51;;;;;;;20.75;6.65;;;26.50;99.90;;;;;;6258933;23;20028;-81
2023/10/21 13:14:19;;;;;;;23.90;6.47;;;26.50;99.90;;;;;;6260124;22;20029;-79
2023/10/21 13:16:47;;;;;;;21.10;6.82;;;26.40;99.90;;;;;;6258618;23;20016;-84
2023/10/21 13:19:15;;;;;;;31.08;10.23;;;26.30;99.90;;;;;;6221823;23;20095;-83
2023/10/21 13:21:42;;;;;;;24.63;7.85;;;26.20;99.90;;;;;;6247187;23;20123;-81